Time;durP1;ratioP1;P1;durP2;ratioP2;P2;SDS_P1;SDS_P2;PMS_P1;PMS_P2;Temp;Humidity;BMP_temperature;BMP_pressure;BME280_temperature;BME280_humidity;BME280_pressure;Samples;Min_cycle;Max_cycle;Signal;HPM_P1;HPM_P2
2022/04/28 00:00:15;;;;;;;7.73;6.33;;;7.60;99.90;;;;;;5072518;28;20266;-56
2022/04/28 00:02:41;;;;;;;7.27;6.57;;;7.60;99.90;;;;;;5072389;28;20274;-57
2022/04/28 00:05:10;;;;;;;8.63;6.60;;;7.50;99.90;;;;;;5072322;28;20770;-58
2022/04/28 00:07:38;;;;;;;7.87;6.23;;;7.50;99.90;;;;;;5072585;28;20440;-57
2022/04/28 00:10:08;;;;;;;7.67;6.90;;;7.40;99.90;;;;;;5072463;28;20215;-58
2022/04/28 00:12:35;;;;;;;8.47;6.13;;;7.40;99.90;;;;;;5072319;28;20218;-60
2022/04/28 00:15:01;;;;;;;7.33;6.63;;;7.40;99.90;;;;;;5071804;28;20716;-58
2022/04/28 00:17:28;;;;;;;7.97;6.13;;;7.30;99.90;;;;;;5072455;28;20262;-57
2022/04/28 00:19:55;;;;;;;6.83;6.13;;;7.30;99.90;;;;;;5072440;28;20279;-59
2022/04/28 00:22:23;;;;;;;7.33;6.53;;;7.30;99.90;;;;;;5072372;28;20207;-58
2022/04/28 00:24:50;;;;;;;7.10;6.40;;;7.20;99.90;;;;;;5071878;28;20225;-58
2022/04/28 00:27:18;;;;;;;6.50;5.90;;;7.20;99.90;;;;;;5071935;28;20228;-56
2022/04/28 00:29:45;;;;;;;7.07;6.37;;;7.20;99.90;;;;;;5071955;28;20669;-59
2022/04/28 00:32:12;;;;;;;16.67;6.83;;;7.20;99.90;;;;;;5071991;28;20672;-58
2022/04/28 00:34:38;;;;;;;8.03;6.77;;;7.20;99.90;;;;;;5072036;28;20229;-58
2022/04/28 00:37:09;;;;;;;7.37;6.67;;;7.20;99.90;;;;;;5072012;28;20255;-58
2022/04/28 00:39:36;;;;;;;7.77;6.90;;;7.20;99.90;;;;;;5071981;28;20201;-59
2022/04/28 00:42:07;;;;;;;7.07;6.37;;;7.20;99.90;;;;;;5071811;28;20205;-57
2022/04/28 00:44:35;;;;;;;8.63;6.90;;;7.20;99.90;;;;;;5071817;28;20282;-59
2022/04/28 00:47:01;;;;;;;7.03;6.33;;;7.30;99.90;;;;;;5072062;28;20233;-60
2022/04/28 00:52:12;;;;;;;8.23;7.23;;;7.20;99.90;;;;;;5071931;28;20200;-57
2022/04/28 00:54:39;;;;;;;8.73;6.87;;;7.10;99.90;;;;;;5071296;28;20241;-57
2022/04/28 00:57:06;;;;;;;7.90;6.70;;;7.10;99.90;;;;;;5072005;28;20204;-58
2022/04/28 00:59:38;;;;;;;7.23;6.53;;;7.10;99.90;;;;;;5071960;28;20209;-58
2022/04/28 01:02:05;;;;;;;8.77;6.73;;;7.10;99.90;;;;;;5072020;28;20204;-59
2022/04/28 01:04:32;;;;;;;8.23;7.00;;;7.10;99.90;;;;;;5071715;28;20259;-57
2022/04/28 01:06:59;;;;;;;7.67;6.87;;;7.10;99.90;;;;;;5076292;28;20209;-58
2022/04/28 01:09:25;;;;;;;7.53;6.83;;;7.00;99.90;;;;;;5076788;28;20233;-57
2022/04/28 01:11:52;;;;;;;8.50;6.40;;;7.10;99.90;;;;;;5076396;28;20254;-59
2022/04/28 01:14:19;;;;;;;38.73;34.87;;;7.10;99.90;;;;;;5076167;28;20229;-57
2022/04/28 01:16:47;;;;;;;9.13;7.27;;;7.00;99.90;;;;;;5075547;28;20205;-57
2022/04/28 01:19:13;;;;;;;7.43;6.63;;;7.00;99.90;;;;;;5075719;28;20200;-58
2022/04/28 01:21:41;;;;;;;8.50;6.67;;;6.90;99.90;;;;;;5075448;28;20201;-58
2022/04/28 01:24:08;;;;;;;6.93;6.07;;;6.90;99.90;;;;;;5075692;28;20211;-56
2022/04/28 01:26:36;;;;;;;7.10;6.40;;;6.90;99.90;;;;;;5075315;28;20218;-59
2022/04/28 01:29:03;;;;;;;9.57;7.60;;;6.90;99.90;;;;;;5075414;28;20227;-58
2022/04/28 01:31:30;;;;;;;9.17;7.47;;;6.90;99.90;;;;;;5075442;28;20217;-57
2022/04/28 01:33:56;;;;;;;8.90;7.07;;;6.90;99.90;;;;;;5075310;28;20286;-56
2022/04/28 01:36:23;;;;;;;9.37;6.80;;;6.90;99.90;;;;;;5075141;28;20205;-57
2022/04/28 01:38:51;;;;;;;12.40;7.60;;;6.90;99.90;;;;;;5075131;28;20209;-57
2022/04/28 01:41:18;;;;;;;8.20;6.63;;;6.90;99.90;;;;;;5075082;28;20258;-58
2022/04/28 01:43:46;;;;;;;8.30;7.47;;;6.90;99.90;;;;;;5075156;28;20619;-57
2022/04/28 01:46:13;;;;;;;12.70;8.53;;;6.90;99.90;;;;;;5074663;28;20315;-57
2022/04/28 01:48:39;;;;;;;8.83;7.37;;;6.80;99.90;;;;;;5075066;28;20316;-58
2022/04/28 01:56:36;;;;;;;12.67;10.20;;;6.80;99.90;;;;;;5075278;28;20735;-59
2022/04/28 01:59:03;;;;;;;8.70;7.20;;;6.80;99.90;;;;;;5074989;28;20197;-60
2022/04/28 02:01:29;;;;;;;9.37;7.03;;;6.80;99.90;;;;;;5075382;28;20250;-58
2022/04/28 02:03:56;;;;;;;10.10;7.10;;;6.80;99.90;;;;;;5074872;28;20209;-59
2022/04/28 02:06:22;;;;;;;9.20;7.87;;;6.80;99.90;;;;;;5074726;28;20201;-60
2022/04/28 02:08:50;;;;;;;7.70;6.90;;;6.80;99.90;;;;;;5074623;28;20255;-60
2022/04/28 02:11:18;;;;;;;7.70;7.00;;;6.80;99.90;;;;;;5074779;28;20201;-60
2022/04/28 02:13:45;;;;;;;10.13;6.80;;;6.70;99.90;;;;;;5074529;28;20205;-60
2022/04/28 02:16:11;;;;;;;7.33;6.53;;;6.70;99.90;;;;;;5073427;28;20232;-60
2022/04/28 02:18:38;;;;;;;8.27;7.47;;;6.70;99.90;;;;;;5074152;28;20209;-60
2022/04/28 02:21:05;;;;;;;8.90;8.00;;;6.70;99.90;;;;;;5074560;28;20266;-60
2022/04/28 02:23:31;;;;;;;8.90;7.57;;;6.70;99.90;;;;;;5074415;28;20208;-62
2022/04/28 02:25:58;;;;;;;7.70;6.90;;;6.70;99.90;;;;;;5073941;28;20237;-59
2022/04/28 02:28:27;;;;;;;10.37;9.20;;;6.70;99.90;;;;;;5074103;28;20225;-59
2022/04/28 02:30:53;;;;;;;9.30;7.17;;;6.60;99.90;;;;;;5074454;28;20209;-60
2022/04/28 02:33:20;;;;;;;7.87;7.07;;;6.50;99.90;;;;;;5074394;28;20239;-62
2022/04/28 02:35:47;;;;;;;16.07;8.60;;;6.50;99.90;;;;;;5074045;28;20274;-61
2022/04/28 02:38:14;;;;;;;7.80;6.57;;;6.50;99.90;;;;;;5074283;28;20292;-59
2022/04/28 02:40:41;;;;;;;9.03;7.93;;;6.40;99.90;;;;;;5074146;28;20255;-59
2022/04/28 02:43:07;;;;;;;10.17;8.33;;;6.30;99.90;;;;;;5074173;28;20677;-60
2022/04/28 02:45:35;;;;;;;12.07;9.67;;;6.30;99.90;;;;;;5074125;28;20232;-60
2022/04/28 02:48:02;;;;;;;19.17;12.30;;;6.40;99.90;;;;;;5073966;28;20220;-60
2022/04/28 02:50:29;;;;;;;11.60;7.53;;;6.30;99.90;;;;;;5074109;28;20212;-59
2022/04/28 02:52:55;;;;;;;10.43;8.33;;;6.30;99.90;;;;;;5073750;28;20232;-60
2022/04/28 02:55:22;;;;;;;8.77;6.57;;;6.30;99.90;;;;;;5073495;28;20236;-60
2022/04/28 02:57:49;;;;;;;9.67;8.57;;;6.30;99.90;;;;;;5074039;28;20559;-59
2022/04/28 03:00:16;;;;;;;9.40;8.30;;;6.30;99.90;;;;;;5073928;28;20205;-60
2022/04/28 03:02:44;;;;;;;9.27;8.37;;;6.20;99.90;;;;;;5073783;28;20696;-60
2022/04/28 03:05:11;;;;;;;7.80;7.00;;;6.20;99.90;;;;;;5073523;28;20511;-60
2022/04/28 03:10:51;;;;;;;8.90;7.80;;;6.40;99.90;;;;;;5073817;28;20211;-60
2022/04/28 03:13:19;;;;;;;11.13;9.60;;;6.30;99.90;;;;;;5073790;28;20204;-59
2022/04/28 03:15:46;;;;;;;9.17;8.20;;;6.30;99.90;;;;;;5072978;28;20761;-59
2022/04/28 03:18:14;;;;;;;8.20;7.40;;;6.30;99.90;;;;;;5073382;28;20200;-60
2022/04/28 03:20:41;;;;;;;8.03;7.07;;;6.30;99.90;;;;;;5073592;28;20207;-60
2022/04/28 03:23:08;;;;;;;9.57;8.10;;;6.20;99.90;;;;;;5073398;28;20204;-59
2022/04/28 03:25:35;;;;;;;8.70;7.80;;;6.20;99.90;;;;;;5073165;28;20294;-61
2022/04/28 03:28:02;;;;;;;10.73;9.33;;;6.20;99.90;;;;;;5072701;28;20251;-59
2022/04/28 03:30:29;;;;;;;9.77;8.63;;;6.30;99.90;;;;;;5073172;28;20205;-60
2022/04/28 03:32:55;;;;;;;19.13;14.73;;;6.20;99.90;;;;;;5073066;28;20243;-60
2022/04/28 03:35:23;;;;;;;10.00;9.00;;;6.20;99.90;;;;;;5072889;28;20233;-59
2022/04/28 03:37:50;;;;;;;9.80;8.80;;;6.20;99.90;;;;;;5072997;28;20213;-60
2022/04/28 03:40:17;;;;;;;8.17;7.37;;;6.20;99.90;;;;;;5073166;28;20209;-60
2022/04/28 03:42:44;;;;;;;10.67;9.20;;;6.20;99.90;;;;;;5072961;28;20265;-59
2022/04/28 03:45:11;;;;;;;9.67;8.37;;;6.20;99.90;;;;;;5072508;28;20320;-61
2022/04/28 03:47:38;;;;;;;11.70;8.87;;;6.10;99.90;;;;;;5072648;28;20204;-61
2022/04/28 03:50:06;;;;;;;8.10;7.30;;;6.10;99.90;;;;;;5072622;28;20571;-59
2022/04/28 03:52:34;;;;;;;9.13;6.87;;;6.00;99.90;;;;;;5072812;28;20231;-60
2022/04/28 03:55:01;;;;;;;8.80;7.27;;;6.10;99.90;;;;;;5072467;28;20232;-60
2022/04/28 03:57:28;;;;;;;8.23;7.43;;;6.00;99.90;;;;;;5072820;28;20208;-60
2022/04/28 03:59:56;;;;;;;7.70;6.80;;;6.00;99.90;;;;;;5072493;28;20197;-60
2022/04/28 04:02:23;;;;;;;7.60;6.83;;;5.90;99.90;;;;;;5072617;28;20223;-60
2022/04/28 04:04:50;;;;;;;7.60;6.87;;;5.90;99.90;;;;;;5072554;28;20236;-60
2022/04/28 04:07:16;;;;;;;12.20;7.10;;;5.90;99.90;;;;;;5072399;28;20254;-59
2022/04/28 04:09:44;;;;;;;7.73;6.80;;;5.90;99.90;;;;;;5072395;28;20282;-60
2022/04/28 04:12:11;;;;;;;7.57;6.83;;;5.90;99.90;;;;;;5072522;28;20204;-60
2022/04/28 04:14:38;;;;;;;7.53;6.40;;;5.90;99.90;;;;;;5072240;28;20233;-60
2022/04/28 04:17:05;;;;;;;7.73;6.53;;;5.90;99.90;;;;;;5072274;28;20209;-60
2022/04/28 04:19:32;;;;;;;7.57;6.87;;;5.90;99.90;;;;;;5072374;28;20259;-60
2022/04/28 04:21:58;;;;;;;8.13;6.53;;;5.90;99.90;;;;;;5072299;28;20209;-60
2022/04/28 04:24:26;;;;;;;10.00;7.60;;;5.90;99.90;;;;;;5072135;28;20256;-59
2022/04/28 04:26:54;;;;;;;7.83;7.03;;;6.00;99.90;;;;;;5072223;28;20677;-60
2022/04/28 04:29:20;;;;;;;17.20;9.97;;;6.00;99.90;;;;;;5072225;28;20229;-60
2022/04/28 04:34:31;;;;;;;8.07;7.03;;;6.20;99.90;;;;;;5072061;28;20219;-59
2022/04/28 04:36:58;;;;;;;8.77;6.73;;;6.20;99.90;;;;;;5072101;28;20209;-60
2022/04/28 04:39:25;;;;;;;12.03;6.93;;;6.30;99.90;;;;;;5071388;28;20330;-60
2022/04/28 04:41:51;;;;;;;7.50;6.80;;;6.30;99.90;;;;;;5071699;28;20204;-60
2022/04/28 04:44:19;;;;;;;8.00;6.70;;;6.30;99.90;;;;;;5071769;28;20286;-60
2022/04/28 04:46:46;;;;;;;7.97;6.67;;;6.30;99.90;;;;;;5071803;28;20243;-60
2022/04/28 04:49:13;;;;;;;8.07;6.60;;;6.30;99.90;;;;;;5071858;28;20273;-60
2022/04/28 04:51:40;;;;;;;9.47;6.33;;;6.40;99.90;;;;;;5071734;28;20671;-59
2022/04/28 04:54:06;;;;;;;9.63;6.43;;;6.40;99.90;;;;;;5071577;28;20231;-61
2022/04/28 04:56:34;;;;;;;7.27;6.50;;;6.40;99.90;;;;;;5071208;28;20204;-61
2022/04/28 04:59:01;;;;;;;7.23;6.53;;;6.40;99.90;;;;;;5071009;28;20797;-60
2022/04/28 05:01:29;;;;;;;9.30;6.63;;;6.50;99.90;;;;;;5070993;28;20205;-61
2022/04/28 05:03:56;;;;;;;8.33;6.70;;;6.60;99.90;;;;;;5071007;28;20205;-58
2022/04/28 05:06:23;;;;;;;8.03;6.53;;;6.70;99.90;;;;;;5070291;28;20201;-61
2022/04/28 05:08:50;;;;;;;10.00;6.67;;;6.80;99.90;;;;;;5070455;28;20491;-59
2022/04/28 05:11:17;;;;;;;8.33;6.77;;;6.90;99.90;;;;;;5070580;28;20630;-61
2022/04/28 05:13:44;;;;;;;7.60;6.20;;;7.00;99.90;;;;;;5070556;28;20679;-61
2022/04/28 05:16:10;;;;;;;7.40;6.50;;;7.10;99.90;;;;;;5070384;28;20290;-60
2022/04/28 05:18:39;;;;;;;9.37;7.17;;;7.20;99.90;;;;;;5070493;28;20292;-61
2022/04/28 05:21:05;;;;;;;18.90;13.20;;;7.30;99.90;;;;;;5070332;28;20201;-61
2022/04/28 05:23:32;;;;;;;11.57;8.57;;;7.50;99.90;;;;;;5070428;28;20208;-60
2022/04/28 05:25:59;;;;;;;8.87;7.47;;;7.50;99.90;;;;;;5070378;28;20275;-60
2022/04/28 05:28:27;;;;;;;11.67;8.83;;;7.60;99.90;;;;;;5070531;28;20212;-67
2022/04/28 05:30:55;;;;;;;7.70;6.40;;;7.70;99.90;;;;;;5070420;28;20268;-59
2022/04/28 05:33:22;;;;;;;8.23;6.60;;;7.90;99.90;;;;;;5070239;28;20665;-59
2022/04/28 05:35:50;;;;;;;7.37;6.60;;;8.20;99.90;;;;;;5069859;28;20262;-59
2022/04/28 05:38:17;;;;;;;6.83;5.83;;;9.10;99.90;;;;;;5070404;28;20212;-58
2022/04/28 05:40:43;;;;;;;8.57;7.00;;;10.60;99.90;;;;;;5070187;28;20574;-59
2022/04/28 05:45:56;;;;;;;6.57;5.87;;;14.30;99.90;;;;;;5070025;28;20236;-60
2022/04/28 05:48:22;;;;;;;5.73;4.50;;;16.30;99.90;;;;;;5069910;28;20278;-60
2022/04/28 05:50:52;;;;;;;4.37;3.80;;;17.90;99.90;;;;;;5070723;28;20209;-58
2022/04/28 05:53:19;;;;;;;6.93;4.63;;;19.40;99.90;;;;;;5074029;28;20262;-59
2022/04/28 05:55:46;;;;;;;5.20;3.95;;;20.80;97.90;;;;;;5038262;28;1029219;-60
2022/04/28 05:58:12;;;;;;;5.65;4.00;;;21.90;93.50;;;;;;5074826;28;20730;-60
2022/04/28 06:00:39;;;;;;;5.40;4.07;;;22.90;92.10;;;;;;5074791;28;20201;-59
2022/04/28 06:03:06;;;;;;;5.00;4.50;;;23.90;89.50;;;;;;5074633;28;20213;-60
2022/04/28 06:05:33;;;;;;;7.90;4.28;;;24.70;84.40;;;;;;5074559;28;20229;-60
2022/04/28 06:08:01;;;;;;;4.30;3.90;;;25.30;80.50;;;;;;5074642;28;20201;-60
2022/04/28 06:10:28;;;;;;;5.45;4.20;;;26.10;78.30;;;;;;5074460;28;20225;-59
2022/04/28 06:12:54;;;;;;;6.03;4.38;;;26.80;74.40;;;;;;5074631;28;20205;-60
2022/04/28 06:15:21;;;;;;;5.85;4.00;;;27.60;69.20;;;;;;5074062;28;20236;-60
2022/04/28 06:17:48;;;;;;;4.97;4.05;;;27.90;66.20;;;;;;5074190;28;20208;-59
2022/04/28 06:20:14;;;;;;;8.40;4.47;;;28.30;63.00;;;;;;5074370;28;20205;-60
2022/04/28 06:22:41;;;;;;;5.88;4.22;;;28.50;62.00;;;;;;5074380;28;20208;-60
2022/04/28 06:25:09;;;;;;;7.72;4.25;;;28.80;60.70;;;;;;5073859;28;20274;-59
2022/04/28 06:27:36;;;;;;;5.93;4.20;;;29.20;59.80;;;;;;5074176;28;20673;-61
2022/04/28 06:30:04;;;;;;;7.55;3.95;;;29.70;58.10;;;;;;5074479;28;20312;-60
2022/04/28 06:32:31;;;;;;;4.38;3.85;;;30.30;55.10;;;;;;5074487;28;20636;-60
2022/04/28 06:34:57;;;;;;;6.22;4.05;;;30.80;54.40;;;;;;5074252;28;20229;-58
2022/04/28 06:37:24;;;;;;;4.90;4.47;;;31.30;52.80;;;;;;5073974;28;20209;-57
2022/04/28 06:39:51;;;;;;;4.43;3.90;;;31.70;50.90;;;;;;5074435;28;20719;-58
2022/04/28 06:42:19;;;;;;;5.88;3.80;;;31.90;50.00;;;;;;5074158;28;20208;-59
2022/04/28 06:44:46;;;;;;;6.45;3.97;;;32.20;49.30;;;;;;5073717;28;20587;-59
2022/04/28 06:47:12;;;;;;;5.22;4.05;;;32.60;48.20;;;;;;5073692;28;20278;-59
2022/04/28 06:49:39;;;;;;;5.55;4.22;;;32.60;47.60;;;;;;5073781;28;20228;-59
2022/04/28 06:52:06;;;;;;;8.13;4.30;;;32.90;47.10;;;;;;5073883;28;20201;-59
2022/04/28 06:54:33;;;;;;;4.25;3.70;;;32.90;47.30;;;;;;5073494;28;20236;-59
2022/04/28 06:57:00;;;;;;;5.70;4.68;;;33.00;46.50;;;;;;5073697;28;20208;-59
2022/04/28 06:59:28;;;;;;;4.47;4.05;;;33.10;46.50;;;;;;5073647;28;20201;-58
2022/04/28 07:01:55;;;;;;;4.78;4.13;;;33.10;47.10;;;;;;5073568;28;20605;-59
2022/04/28 07:04:21;;;;;;;4.63;3.90;;;33.10;45.70;;;;;;5072864;28;20228;-60
2022/04/28 07:06:48;;;;;;;4.85;3.65;;;33.00;46.10;;;;;;5073360;28;20254;-59
2022/04/28 07:09:15;;;;;;;6.68;3.90;;;33.50;45.60;;;;;;5073395;28;20240;-59
2022/04/28 07:11:42;;;;;;;6.18;4.15;;;33.80;45.00;;;;;;5073410;28;20205;-60
2022/04/28 07:14:08;;;;;;;4.68;4.22;;;34.30;44.00;;;;;;5073401;28;20220;-58
2022/04/28 07:16:36;;;;;;;4.45;3.92;;;34.00;44.10;;;;;;5073177;28;20209;-58
2022/04/28 07:19:04;;;;;;;4.55;4.15;;;33.60;44.60;;;;;;5073487;28;20201;-59
2022/04/28 07:21:31;;;;;;;4.10;3.70;;;33.90;44.00;;;;;;5073205;28;20774;-58
2022/04/28 07:23:58;;;;;;;6.95;3.97;;;33.80;44.00;;;;;;5072800;28;20673;-59
2022/04/28 07:26:24;;;;;;;6.43;4.20;;;34.30;44.00;;;;;;5072895;28;20208;-60
2022/04/28 07:28:51;;;;;;;4.15;3.75;;;35.00;43.20;;;;;;5073354;28;20209;-61
2022/04/28 07:31:17;;;;;;;6.50;4.28;;;35.70;42.00;;;;;;5073319;28;20205;-60
2022/04/28 07:33:45;;;;;;;5.53;3.55;;;35.10;42.30;;;;;;5073024;28;20208;-60
2022/04/28 07:36:13;;;;;;;4.47;4.05;;;34.90;43.20;;;;;;5072432;28;20228;-60
2022/04/28 07:38:41;;;;;;;6.35;4.18;;;33.90;42.70;;;;;;5072885;28;20258;-59
2022/04/28 07:41:08;;;;;;;5.45;3.90;;;33.00;44.00;;;;;;5072696;28;20243;-59
2022/04/28 07:43:34;;;;;;;8.85;6.75;;;31.40;45.80;;;;;;5072809;28;20205;-56
2022/04/28 07:46:01;;;;;;;5.20;4.70;;;30.60;48.10;;;;;;5072223;28;20301;-56
2022/04/28 07:48:28;;;;;;;4.53;4.13;;;31.20;46.90;;;;;;5072770;28;20575;-56
2022/04/28 07:50:56;;;;;;;5.15;4.50;;;32.20;45.50;;;;;;5072222;28;20225;-54
2022/04/28 07:53:23;;;;;;;5.90;4.00;;;31.50;46.00;;;;;;5072160;28;20270;-57
2022/04/28 07:58:31;;;;;;;8.60;4.55;;;27.30;51.30;;;;;;5071368;28;20193;-57
2022/04/28 08:00:58;;;;;;;4.40;4.00;;;26.20;53.30;;;;;;5072624;28;20205;-56
2022/04/28 08:03:25;;;;;;;5.18;4.30;;;25.70;54.00;;;;;;5072220;28;20263;-56
2022/04/28 08:05:52;;;;;;;7.05;4.40;;;25.40;56.10;;;;;;5071784;28;20286;-56
2022/04/28 08:08:20;;;;;;;4.95;4.45;;;25.60;54.90;;;;;;5072435;28;20559;-57
2022/04/28 08:10:47;;;;;;;4.53;4.13;;;26.70;52.70;;;;;;5072227;28;20290;-56
2022/04/28 08:13:14;;;;;;;6.13;4.05;;;27.10;52.20;;;;;;5072040;28;20266;-56
2022/04/28 08:15:40;;;;;;;4.07;2.78;;;28.40;50.60;;;;;;5071286;28;20225;-57
2022/04/28 08:18:07;;;;;;;2.92;2.70;;;30.10;45.10;;;;;;5071668;28;20627;-57
2022/04/28 08:20:34;;;;;;;4.20;2.50;;;31.00;42.50;;;;;;5071952;28;20201;-56
2022/04/28 08:23:01;;;;;;;3.00;2.50;;;30.80;42.10;;;;;;5072199;28;20258;-57
2022/04/28 08:25:29;;;;;;;3.63;2.38;;;29.80;42.90;;;;;;5071922;28;20229;-57
2022/04/28 08:27:55;;;;;;;3.15;2.80;;;28.60;43.30;;;;;;5071854;28;20209;-57
2022/04/28 08:30:22;;;;;;;2.95;2.65;;;26.70;45.20;;;;;;5072399;28;20421;-57
2022/04/28 08:32:49;;;;;;;4.53;3.15;;;24.90;47.80;;;;;;5072220;28;20446;-57
2022/04/28 08:35:15;;;;;;;6.30;3.00;;;23.20;49.40;;;;;;5071788;28;20228;-56
2022/04/28 08:37:42;;;;;;;4.03;2.58;;;21.80;51.00;;;;;;5071581;28;20699;-57
2022/04/28 08:40:10;;;;;;;3.20;2.90;;;20.90;53.70;;;;;;5072366;28;20205;-57
2022/04/28 08:42:41;;;;;;;4.43;2.90;;;20.40;54.50;;;;;;5071837;28;20209;-57
2022/04/28 08:45:08;;;;;;;6.72;3.00;;;20.00;54.90;;;;;;5071898;28;20233;-57
2022/04/28 08:47:35;;;;;;;4.80;2.83;;;19.80;55.90;;;;;;5071431;28;20209;-63
2022/04/28 08:50:01;;;;;;;3.45;2.80;;;19.30;56.00;;;;;;5072125;28;20231;-57
2022/04/28 08:52:28;;;;;;;5.65;2.83;;;18.90;55.50;;;;;;5072324;28;20274;-58
2022/04/28 08:54:55;;;;;;;3.58;2.92;;;18.50;55.90;;;;;;5071850;28;20640;-58
2022/04/28 08:57:23;;;;;;;4.20;2.95;;;18.30;56.10;;;;;;5071692;28;20208;-57
2022/04/28 08:59:55;;;;;;;3.15;2.60;;;18.10;56.30;;;;;;5071455;28;20201;-58
2022/04/28 09:02:24;;;;;;;4.10;2.58;;;18.00;55.80;;;;;;5071578;28;20213;-58
2022/04/28 09:04:50;;;;;;;4.63;3.20;;;18.00;55.70;;;;;;5071524;28;20312;-59
2022/04/28 09:07:17;;;;;;;4.53;3.17;;;17.90;56.60;;;;;;5071191;28;20209;-59
2022/04/28 09:09:44;;;;;;;4.55;3.20;;;17.90;56.20;;;;;;5071409;28;20636;-58
2022/04/28 09:12:11;;;;;;;3.97;2.80;;;18.00;55.30;;;;;;5071418;28;20201;-59
2022/04/28 09:14:43;;;;;;;3.45;2.67;;;18.00;56.90;;;;;;5071179;28;20232;-59
2022/04/28 09:17:11;;;;;;;2.70;2.40;;;18.10;56.30;;;;;;5071504;28;20287;-58
2022/04/28 09:19:40;;;;;;;2.75;2.10;;;18.20;57.00;;;;;;5071542;28;20216;-58
2022/04/28 09:22:09;;;;;;;3.33;2.80;;;18.30;55.90;;;;;;5071546;28;20238;-59
2022/04/28 09:24:37;;;;;;;4.38;2.40;;;18.30;53.90;;;;;;5071302;28;20315;-59
2022/04/28 09:27:04;;;;;;;4.13;2.40;;;18.40;56.00;;;;;;5073586;28;20217;-59
2022/04/28 09:29:36;;;;;;;3.08;2.33;;;18.50;55.30;;;;;;5075498;28;20205;-58
2022/04/28 09:32:06;;;;;;;2.58;2.38;;;18.50;55.40;;;;;;5075392;28;20208;-58
2022/04/28 09:34:34;;;;;;;3.47;2.30;;;18.50;55.90;;;;;;5075355;28;20269;-59
2022/04/28 09:37:01;;;;;;;4.47;2.20;;;18.50;54.70;;;;;;5074916;28;20213;-59
2022/04/28 09:42:33;;;;;;;2.13;1.92;;;18.60;53.30;;;;;;5075153;28;20251;-59
2022/04/28 09:45:02;;;;;;;3.40;2.10;;;18.70;52.10;;;;;;5074866;28;20312;-62
2022/04/28 09:47:31;;;;;;;2.53;1.95;;;18.60;50.90;;;;;;5074742;28;20278;-58
2022/04/28 09:49:59;;;;;;;4.85;2.63;;;18.60;52.10;;;;;;5074606;28;20221;-59
2022/04/28 09:52:30;;;;;;;3.78;2.20;;;18.70;52.80;;;;;;5074955;28;20213;-59
2022/04/28 09:54:59;;;;;;;5.13;3.30;;;18.70;53.80;;;;;;5074485;28;20290;-58
2022/04/28 09:57:26;;;;;;;3.60;2.33;;;18.70;54.50;;;;;;5074261;28;20669;-59
2022/04/28 09:59:55;;;;;;;4.47;2.38;;;18.80;54.50;;;;;;5074074;28;20699;-59
2022/04/28 10:02:23;;;;;;;2.67;2.35;;;18.90;54.10;;;;;;5074477;28;20265;-59
2022/04/28 10:04:51;;;;;;;4.00;2.33;;;19.00;54.30;;;;;;5074233;28;20229;-61
2022/04/28 10:07:20;;;;;;;5.13;2.20;;;19.00;53.70;;;;;;5073954;28;20622;-59
2022/04/28 10:09:49;;;;;;;4.50;2.60;;;19.10;52.10;;;;;;5074083;28;20201;-59
2022/04/28 10:12:19;;;;;;;2.67;2.20;;;19.00;52.00;;;;;;5074543;28;20299;-61
2022/04/28 10:14:46;;;;;;;4.88;2.63;;;19.10;52.10;;;;;;5074177;28;20311;-58
2022/04/28 10:17:22;;;;;;;3.97;2.28;;;19.10;52.10;;;;;;5073906;28;20235;-59
2022/04/28 10:19:53;;;;;;;2.50;2.30;;;19.20;52.20;;;;;;5074369;28;20690;-59
2022/04/28 10:22:29;;;;;;;5.07;2.70;;;19.10;52.90;;;;;;5074451;28;20627;-59
2022/04/28 10:33:18;;;;;;;3.92;2.55;;;19.30;53.10;;;;;;5074032;28;20216;-66
2022/04/28 10:35:47;;;;;;;4.70;2.20;;;19.40;52.30;;;;;;5071228;28;20685;-60
2022/04/28 10:38:20;;;;;;;3.22;2.10;;;19.60;51.70;;;;;;5072233;28;20307;-60
2022/04/28 10:40:57;;;;;;;2.58;1.90;;;19.80;52.10;;;;;;5074017;28;20208;-61
2022/04/28 10:43:26;;;;;;;2.95;2.10;;;19.90;51.80;;;;;;5073573;28;20205;-60
2022/04/28 10:45:54;;;;;;;2.75;2.40;;;19.90;51.70;;;;;;5073309;28;20550;-62
2022/04/28 10:48:26;;;;;;;4.03;2.22;;;19.90;52.50;;;;;;5073866;28;20205;-61
2022/04/28 10:51:10;;;;;;;3.80;2.00;;;19.90;50.70;;;;;;5073642;28;20324;-63
2022/04/28 10:54:09;;;;;;;3.25;2.42;;;20.00;51.30;;;;;;5073520;28;20212;-63
2022/04/28 10:57:12;;;;;;;2.33;2.13;;;19.90;51.00;;;;;;5074036;28;20212;-61
2022/04/28 10:59:41;;;;;;;4.72;2.22;;;19.80;51.70;;;;;;5031130;28;20210;-59
2022/04/28 11:02:41;;;;;;;3.10;2.30;;;19.70;51.50;;;;;;5030930;28;20213;-60
2022/04/28 11:05:38;;;;;;;2.95;2.28;;;19.80;52.20;;;;;;5060609;28;20221;-62
2022/04/28 11:08:05;;;;;;;2.75;2.05;;;19.80;51.50;;;;;;5069248;28;20362;-59
2022/04/28 11:10:33;;;;;;;3.20;2.10;;;19.80;52.70;;;;;;5073429;28;20220;-59
2022/04/28 11:13:09;;;;;;;2.47;2.08;;;19.90;52.10;;;;;;5073112;28;20205;-60
2022/04/28 11:15:37;;;;;;;3.75;2.03;;;20.00;51.20;;;;;;5072945;28;20829;-59
2022/04/28 11:18:04;;;;;;;2.17;1.98;;;20.10;51.30;;;;;;5073543;28;20312;-61
2022/04/28 11:20:32;;;;;;;2.28;1.90;;;20.30;52.70;;;;;;5073995;28;20293;-59
2022/04/28 11:22:59;;;;;;;2.00;1.80;;;20.20;51.10;;;;;;5073960;28;20279;-60
2022/04/28 11:25:26;;;;;;;3.13;2.08;;;20.30;52.60;;;;;;5073405;28;20224;-60
2022/04/28 11:27:56;;;;;;;2.35;2.08;;;20.30;50.70;;;;;;5073326;28;20263;-60
2022/04/28 11:30:25;;;;;;;2.70;2.10;;;20.40;50.60;;;;;;5073466;28;20356;-61
2022/04/28 11:32:57;;;;;;;3.45;2.10;;;20.30;49.70;;;;;;5073669;28;20217;-58
2022/04/28 11:35:29;;;;;;;2.45;1.83;;;20.30;50.90;;;;;;5073596;28;20510;-59
2022/04/28 11:37:56;;;;;;;5.40;1.90;;;20.30;51.30;;;;;;5072977;28;20213;-59
2022/04/28 11:40:24;;;;;;;5.60;3.97;;;20.40;51.40;;;;;;5073008;28;20330;-61
2022/04/28 11:42:58;;;;;;;5.00;1.73;;;20.60;50.30;;;;;;5073005;28;20237;-60
2022/04/28 11:45:25;;;;;;;2.17;1.75;;;20.60;50.80;;;;;;5072698;28;20604;-60
2022/04/28 11:47:55;;;;;;;3.00;2.10;;;20.70;51.20;;;;;;5072364;28;20215;-59
2022/04/28 11:50:24;;;;;;;4.32;2.60;;;20.80;49.90;;;;;;5072156;28;20212;-59
2022/04/28 11:53:03;;;;;;;6.75;2.42;;;20.70;50.40;;;;;;5072401;28;20205;-60
2022/04/28 11:55:31;;;;;;;4.65;2.08;;;20.80;50.10;;;;;;5072188;28;20613;-60
2022/04/28 11:57:59;;;;;;;5.55;2.08;;;20.90;49.70;;;;;;5072271;28;20296;-59
2022/04/28 12:00:26;;;;;;;3.70;2.50;;;21.00;50.20;;;;;;5072269;28;20572;-59
2022/04/28 12:02:54;;;;;;;5.95;2.60;;;20.90;51.10;;;;;;5072256;28;20237;-58
2022/04/28 12:05:22;;;;;;;4.93;2.50;;;20.90;50.50;;;;;;5072181;28;20780;-59
2022/04/28 12:07:52;;;;;;;2.58;2.15;;;21.00;51.00;;;;;;5071883;28;20282;-59
2022/04/28 12:15:56;;;;;;;4.40;4.00;;;20.90;50.10;;;;;;5071862;28;20346;-59
2022/04/28 12:21:18;;;;;;;6.10;2.40;;;20.80;50.30;;;;;;5072103;28;20203;-58
2022/04/28 12:23:48;;;;;;;2.50;2.10;;;20.80;49.70;;;;;;5072297;28;20208;-58
2022/04/28 12:26:15;;;;;;;2.85;2.30;;;21.00;50.20;;;;;;5071683;28;20231;-59
2022/04/28 12:28:45;;;;;;;7.05;2.30;;;21.20;49.90;;;;;;5072186;28;20213;-59
2022/04/28 12:31:13;;;;;;;2.50;2.30;;;21.40;50.60;;;;;;5071990;28;20228;-59
2022/04/28 12:33:41;;;;;;;2.33;2.10;;;21.40;50.20;;;;;;5071995;28;20205;-59
2022/04/28 12:36:11;;;;;;;2.05;1.90;;;21.30;49.90;;;;;;5071852;28;20225;-59
2022/04/28 12:38:44;;;;;;;2.40;2.13;;;21.20;49.50;;;;;;5072036;28;20216;-58
2022/04/28 12:41:16;;;;;;;3.00;2.08;;;21.20;49.50;;;;;;5071918;28;20201;-58
2022/04/28 12:43:46;;;;;;;2.55;2.08;;;21.20;49.60;;;;;;5071628;28;20618;-58
2022/04/28 12:46:15;;;;;;;7.60;2.45;;;21.10;49.80;;;;;;5071543;28;20229;-58
2022/04/28 12:48:42;;;;;;;2.97;2.10;;;21.10;50.00;;;;;;5071857;28;20205;-58
2022/04/28 12:51:16;;;;;;;4.53;2.00;;;21.20;50.60;;;;;;5071697;28;20225;-58
2022/04/28 12:53:45;;;;;;;5.32;2.80;;;21.20;50.40;;;;;;5071973;28;20220;-58
2022/04/28 12:56:16;;;;;;;4.43;2.17;;;21.30;50.80;;;;;;5071620;28;20240;-58
2022/04/28 12:58:46;;;;;;;4.38;2.05;;;21.40;50.90;;;;;;5071989;28;20573;-58
2022/04/28 13:01:14;;;;;;;3.10;2.08;;;21.50;51.20;;;;;;5071129;28;20212;-58
2022/04/28 13:03:42;;;;;;;3.45;2.00;;;21.50;50.70;;;;;;5071638;28;20216;-58
2022/04/28 13:06:09;;;;;;;4.50;2.20;;;21.60;50.10;;;;;;5071167;28;20236;-58
2022/04/28 13:08:35;;;;;;;2.30;2.10;;;21.70;49.80;;;;;;5071450;28;20707;-58
2022/04/28 13:11:03;;;;;;;3.30;1.98;;;21.80;50.00;;;;;;5071670;28;20217;-58
2022/04/28 13:13:30;;;;;;;3.60;2.22;;;21.70;50.30;;;;;;5071611;28;20205;-58
2022/04/28 13:15:58;;;;;;;3.22;2.10;;;21.60;50.50;;;;;;5071194;28;20229;-59
2022/04/28 13:18:26;;;;;;;2.13;1.95;;;21.60;49.70;;;;;;5071645;28;20266;-58
2022/04/28 13:20:52;;;;;;;3.25;2.17;;;21.50;50.70;;;;;;5071722;28;20219;-59
2022/04/28 13:23:19;;;;;;;3.33;1.92;;;21.50;50.70;;;;;;5071512;28;20680;-60
2022/04/28 13:25:46;;;;;;;2.33;2.05;;;21.60;50.00;;;;;;5071433;28;20237;-58
2022/04/28 13:28:12;;;;;;;3.45;2.00;;;21.70;49.60;;;;;;5071339;28;20635;-58
2022/04/28 13:30:40;;;;;;;4.20;2.20;;;21.80;49.90;;;;;;5071309;28;20275;-58
2022/04/28 13:33:08;;;;;;;2.33;1.98;;;21.80;49.60;;;;;;5071088;28;20726;-58